ENHV/HVG METAR and TAF weather

Enter ICAO airport designator
Station Type Date Time Source
ENHV METAR 2019/06/26 19:50 UTC NOAA

ENHV 261950Z 16009KT 140V210 9999 -SHRA 08/06 Q1006


Station Type Date Time Source
ENHV Decoded METAR 2019/06/26 19:50 UTC NOAA

Honningsvag / Valan, Norway (ENHV) 71-01N 025-59E 14M
Jun 26, 2019 - 03:50 PM EDT / 2019.06.26 1950 UTC
Wind: from the SSE (160 degrees) at 10 MPH (9 KT) (direction variable):0
Visibility: greater than 7 mile(s):0
Weather: light rain showers
Temperature: 46 F (8 C)
Dew Point: 42 F (6 C)
Relative Humidity: 87%
Pressure (altimeter): 29.71 in. Hg (1006 hPa)
ob: ENHV 261950Z 16009KT 140V210 9999 -SHRA 08/06 Q1006
cycle: 20

Station Type Date Time Source
ENHV TAF UTC NOAA

Error!

Example: see airport list